Time;durP1;ratioP1;P1;durP2;ratioP2;P2;SDS_P1;SDS_P2;PMS_P1;PMS_P2;Temp;Humidity;BMP_temperature;BMP_pressure;BME280_temperature;BME280_humidity;BME280_pressure;Samples;Min_cycle;Max_cycle;Signal;HPM_P1;HPM_P2
2021/01/03 00:00:22;;;;;;;;;;;3.90;99.90;;;;;;5099154;28;19907;-85
2021/01/03 00:02:51;;;;;;;;;;;3.90;99.90;;;;;;5099298;28;19915;-85
2021/01/03 00:05:22;;;;;;;;;;;3.90;99.90;;;;;;5099469;28;20335;-85
2021/01/03 00:07:51;;;;;;;;;;;3.90;99.90;;;;;;5098687;28;19916;-85
2021/01/03 00:10:29;;;;;;;;;;;3.80;99.90;;;;;;5098942;28;20318;-85
2021/01/03 00:12:57;;;;;;;;;;;3.80;99.90;;;;;;5099187;28;19908;-85
2021/01/03 00:15:24;;;;;;;;;;;3.80;99.90;;;;;;5100687;27;19975;-85
2021/01/03 00:18:01;;;;;;;;;;;3.80;99.90;;;;;;5119196;27;19911;-85
2021/01/03 00:20:30;;;;;;;;;;;3.80;99.90;;;;;;5119458;27;20424;-85
2021/01/03 00:23:06;;;;;;;;;;;3.80;99.90;;;;;;5119511;27;19911;-83
2021/01/03 00:25:37;;;;;;;;;;;3.80;99.90;;;;;;5116320;27;19934;-86
2021/01/03 00:28:12;;;;;;;;;;;3.80;99.90;;;;;;5137510;27;19967;-83
2021/01/03 00:30:44;;;;;;;;;;;3.80;99.90;;;;;;5117811;27;19911;-87
2021/01/03 00:33:17;;;;;;;;;;;3.80;99.90;;;;;;5119513;27;19922;-84
2021/01/03 00:35:45;;;;;;;;;;;3.80;99.90;;;;;;5132736;27;19908;-84
2021/01/03 00:38:21;;;;;;;;;;;3.80;99.90;;;;;;5137165;27;19915;-84
2021/01/03 00:40:52;;;;;;;;;;;3.70;99.90;;;;;;5118757;27;19914;-84
2021/01/03 00:43:18;;;;;;;;;;;3.80;99.90;;;;;;5118672;27;20275;-84
2021/01/03 00:45:52;;;;;;;;;;;3.70;99.90;;;;;;5118964;27;19908;-84
2021/01/03 00:48:24;;;;;;;;;;;3.70;99.90;;;;;;5137230;27;19914;-85
2021/01/03 00:51:01;;;;;;;;;;;3.70;99.90;;;;;;5118779;27;19911;-84
2021/01/03 00:53:27;;;;;;;;;;;3.70;99.90;;;;;;5118395;27;19939;-85
2021/01/03 00:56:02;;;;;;;;;;;3.70;99.90;;;;;;5118638;27;19908;-84
2021/01/03 00:58:33;;;;;;;;;;;3.70;99.90;;;;;;5118245;27;19954;-84
2021/01/03 01:00:59;;;;;;;;;;;3.70;99.90;;;;;;5118799;27;19907;-84
2021/01/03 01:03:24;;;;;;;;;;;3.70;99.90;;;;;;5114029;27;20344;-84
2021/01/03 01:05:53;;;;;;;;;;;3.70;99.90;;;;;;5136650;27;19907;-84
2021/01/03 01:08:29;;;;;;;;;;;3.70;99.90;;;;;;5117965;27;19946;-85
2021/01/03 01:10:57;;;;;;;;;;;3.70;99.90;;;;;;5114696;27;20394;-85
2021/01/03 01:13:41;;;;;;;;;;;3.70;99.90;;;;;;5118353;27;19915;-85
2021/01/03 01:16:13;;;;;;;;;;;3.70;99.90;;;;;;5117777;27;19919;-85
2021/01/03 01:18:41;;;;;;;;;;;3.70;99.90;;;;;;5115025;27;19911;-85
2021/01/03 01:21:12;;;;;;;;;;;3.60;99.90;;;;;;5116303;27;19908;-85
2021/01/03 01:23:58;;;;;;;;;;;3.70;99.90;;;;;;5134544;27;19908;-84
2021/01/03 01:26:32;;;;;;;;;;;3.70;99.90;;;;;;5113182;27;19916;-85
2021/01/03 01:29:07;;;;;;;;;;;3.70;99.90;;;;;;5118141;27;19915;-86
2021/01/03 01:31:38;;;;;;;;;;;3.70;99.90;;;;;;5112930;27;19922;-84
2021/01/03 01:34:06;;;;;;;;;;;3.70;99.90;;;;;;5117995;27;20024;-85
2021/01/03 01:36:32;;;;;;;;;;;3.70;99.90;;;;;;5117994;27;20371;-85
2021/01/03 01:39:00;;;;;;;;;;;3.60;99.90;;;;;;5136177;27;19908;-85
2021/01/03 01:41:31;;;;;;;;;;;3.70;99.90;;;;;;5117305;27;19918;-85
2021/01/03 01:44:12;;;;;;;;;;;3.60;99.90;;;;;;5117009;27;19972;-85
2021/01/03 01:46:43;;;;;;;;;;;3.60;99.90;;;;;;5135653;27;19950;-83
2021/01/03 01:49:16;;;;;;;;;;;3.60;99.90;;;;;;5135804;27;20394;-84
2021/01/03 01:51:52;;;;;;;;;;;3.70;99.90;;;;;;5117516;27;20288;-84
2021/01/03 01:54:27;;;;;;;;;;;3.70;99.90;;;;;;5116922;27;20424;-84
2021/01/03 01:57:05;;;;;;;;;;;3.70;99.90;;;;;;5117522;27;19907;-84
2021/01/03 01:59:37;;;;;;;;;;;3.70;99.90;;;;;;5117398;27;19957;-84
2021/01/03 02:02:14;;;;;;;;;;;3.70;99.90;;;;;;5117205;27;20041;-84
2021/01/03 02:04:48;;;;;;;;;;;3.70;99.90;;;;;;5135221;27;19908;-84
2021/01/03 02:07:20;;;;;;;;;;;3.70;99.90;;;;;;5117201;27;19907;-84
2021/01/03 02:09:54;;;;;;;;;;;3.70;99.90;;;;;;5135335;27;19922;-84
2021/01/03 02:12:26;;;;;;;;;;;3.70;99.90;;;;;;5135270;27;19911;-83
2021/01/03 02:14:59;;;;;;;;;;;3.70;99.90;;;;;;5117341;27;19907;-83
2021/01/03 02:17:28;;;;;;;;;;;3.70;99.90;;;;;;5113257;28;19965;-84
2021/01/03 02:19:57;;;;;;;;;;;3.70;99.90;;;;;;5113641;28;19912;-83
2021/01/03 02:22:29;;;;;;;;;;;3.70;99.90;;;;;;5113803;28;19911;-84
2021/01/03 02:25:00;;;;;;;;;;;3.70;99.90;;;;;;5114736;28;19914;-84
2021/01/03 02:27:36;;;;;;;;;;;3.70;99.90;;;;;;5113022;28;19912;-86
2021/01/03 02:30:30;;;;;;;;;;;3.70;99.90;;;;;;5113194;28;19941;-85
2021/01/03 02:33:25;;;;;;;;;;;3.70;99.90;;;;;;5113386;28;19916;-84
2021/01/03 02:36:11;;;;;;;;;;;3.70;99.90;;;;;;5112599;28;20105;-85
2021/01/03 02:38:42;;;;;;;;;;;3.70;99.90;;;;;;5113364;28;19953;-85
2021/01/03 02:41:11;;;;;;;;;;;3.70;99.90;;;;;;5112897;28;20314;-85
2021/01/03 02:43:42;;;;;;;;;;;3.70;99.90;;;;;;5113149;28;19935;-84
2021/01/03 02:46:11;;;;;;;;;;;3.70;99.90;;;;;;5112837;28;19930;-85
2021/01/03 02:48:43;;;;;;;;;;;3.70;99.90;;;;;;5110323;28;20002;-84
2021/01/03 02:51:14;;;;;;;;;;;3.70;99.90;;;;;;5114098;28;19922;-85
2021/01/03 02:53:49;;;;;;;;;;;3.70;99.90;;;;;;5113716;28;19953;-84
2021/01/03 02:56:20;;;;;;;;;;;3.70;99.90;;;;;;5114206;28;19907;-84
2021/01/03 02:58:48;;;;;;;;;;;3.70;99.90;;;;;;5114358;28;19907;-86
2021/01/03 03:01:13;;;;;;;;;;;3.70;99.90;;;;;;5113199;28;19990;-84
2021/01/03 03:03:42;;;;;;;;;;;3.70;99.90;;;;;;5112844;28;19950;-84
2021/01/03 03:06:15;;;;;;;;;;;3.70;99.90;;;;;;5114107;28;19950;-84
2021/01/03 03:08:51;;;;;;;;;;;3.70;99.90;;;;;;5113180;28;19915;-84
2021/01/03 03:11:27;;;;;;;;;;;3.70;99.90;;;;;;5108132;28;19912;-85
2021/01/03 03:13:56;;;;;;;;;;;3.60;99.90;;;;;;5112833;28;19957;-84
2021/01/03 03:16:27;;;;;;;;;;;3.60;99.90;;;;;;5106163;27;19969;-84
2021/01/03 03:19:03;;;;;;;;;;;3.60;99.90;;;;;;5108091;28;20360;-84
2021/01/03 03:21:29;;;;;;;;;;;3.60;99.90;;;;;;5112766;28;20375;-85
2021/01/03 03:24:01;;;;;;;;;;;3.60;99.90;;;;;;5112439;28;19908;-85
2021/01/03 03:26:32;;;;;;;;;;;3.60;99.90;;;;;;5110066;28;19916;-86
2021/01/03 03:29:08;;;;;;;;;;;3.50;99.90;;;;;;5113326;28;20309;-86
2021/01/03 03:31:42;;;;;;;;;;;3.50;99.90;;;;;;5112480;28;19919;-85
2021/01/03 03:34:11;;;;;;;;;;;3.50;99.90;;;;;;5108485;28;19908;-85
2021/01/03 03:36:49;;;;;;;;;;;3.50;99.90;;;;;;5112589;28;19908;-85
2021/01/03 03:39:25;;;;;;;;;;;3.50;99.90;;;;;;5114058;28;19994;-85
2021/01/03 03:42:01;;;;;;;;;;;3.50;99.90;;;;;;5112880;28;19947;-85
2021/01/03 03:44:32;;;;;;;;;;;3.50;99.90;;;;;;5113105;28;19934;-85
2021/01/03 03:47:05;;;;;;;;;;;3.50;99.90;;;;;;5112632;28;19919;-85
2021/01/03 03:49:32;;;;;;;;;;;3.50;99.90;;;;;;5106933;28;19941;-85
2021/01/03 03:52:03;;;;;;;;;;;3.50;99.90;;;;;;5106460;28;19916;-85
2021/01/03 03:54:31;;;;;;;;;;;3.50;99.90;;;;;;5113738;28;19953;-85
2021/01/03 03:57:01;;;;;;;;;;;3.50;99.90;;;;;;5112553;28;19915;-85
2021/01/03 03:59:29;;;;;;;;;;;3.50;99.90;;;;;;5112074;28;19919;-85
2021/01/03 04:02:05;;;;;;;;;;;3.40;99.90;;;;;;5113961;28;20010;-86
2021/01/03 04:04:40;;;;;;;;;;;3.50;99.90;;;;;;5114972;28;20269;-85
2021/01/03 04:07:16;;;;;;;;;;;3.50;99.90;;;;;;5116067;28;19908;-85
2021/01/03 04:09:46;;;;;;;;;;;3.50;99.90;;;;;;5115889;28;19915;-85
2021/01/03 04:12:14;;;;;;;;;;;3.40;99.90;;;;;;5116104;28;19908;-86
2021/01/03 04:14:43;;;;;;;;;;;3.50;99.90;;;;;;5116405;28;20295;-86
2021/01/03 04:17:17;;;;;;;;;;;3.50;99.90;;;;;;5131433;27;19920;-86
2021/01/03 04:19:45;;;;;;;;;;;3.50;99.90;;;;;;5119641;27;20344;-85
2021/01/03 04:22:35;;;;;;;;;;;3.40;99.90;;;;;;5119386;27;20374;-85
2021/01/03 04:25:04;;;;;;;;;;;3.40;99.90;;;;;;5137957;27;19915;-85
2021/01/03 04:27:30;;;;;;;;;;;3.40;99.90;;;;;;5137924;27;19999;-85
2021/01/03 04:30:04;;;;;;;;;;;3.40;99.90;;;;;;5114421;27;19915;-85
2021/01/03 04:32:34;;;;;;;;;;;3.40;99.90;;;;;;5114528;27;19948;-85
2021/01/03 04:35:07;;;;;;;;;;;3.40;99.90;;;;;;5119195;27;19908;-86
2021/01/03 04:37:38;;;;;;;;;;;3.40;99.90;;;;;;5119032;27;19908;-85
2021/01/03 04:40:05;;;;;;;;;;;3.40;99.90;;;;;;5119057;27;19907;-86
2021/01/03 04:42:37;;;;;;;;;;;3.40;99.90;;;;;;5113676;27;19907;-86
2021/01/03 04:45:31;;;;;;;;;;;3.40;99.90;;;;;;5113984;27;19908;-86
2021/01/03 04:48:19;;;;;;;;;;;3.40;99.90;;;;;;5118999;27;19907;-86
2021/01/03 04:50:44;;;;;;;;;;;3.40;99.90;;;;;;5118940;27;19912;-83
2021/01/03 04:53:27;;;;;;;;;;;3.40;99.90;;;;;;5118843;27;19933;-85
2021/01/03 04:56:04;;;;;;;;;;;3.40;99.90;;;;;;5118906;27;19937;-85
2021/01/03 04:58:44;;;;;;;;;;;3.50;99.90;;;;;;5118507;27;19907;-85
2021/01/03 05:01:42;;;;;;;;;;;3.40;99.90;;;;;;5134914;27;19907;-86
2021/01/03 05:04:13;;;;;;;;;;;3.40;99.90;;;;;;5118364;27;19907;-84
2021/01/03 05:06:59;;;;;;;;;;;3.40;99.90;;;;;;5136874;27;19914;-83
2021/01/03 05:09:30;;;;;;;;;;;3.50;99.90;;;;;;5116126;27;19907;-84
2021/01/03 05:12:04;;;;;;;;;;;3.50;99.90;;;;;;5118122;27;19927;-84
2021/01/03 05:14:39;;;;;;;;;;;3.50;99.90;;;;;;5117811;27;19907;-84
2021/01/03 05:17:11;;;;;;;;;;;3.40;99.90;;;;;;5113946;28;19919;-84
2021/01/03 05:19:40;;;;;;;;;;;3.50;99.90;;;;;;5114562;28;19912;-84
2021/01/03 05:22:28;;;;;;;;;;;3.50;99.90;;;;;;5116209;28;19965;-84
2021/01/03 05:25:00;;;;;;;;;;;3.50;99.90;;;;;;5115493;28;19965;-84
2021/01/03 05:27:29;;;;;;;;;;;3.50;99.90;;;;;;5114485;28;19911;-84
2021/01/03 05:30:18;;;;;;;;;;;3.50;99.90;;;;;;5114262;28;19915;-85
2021/01/03 05:32:49;;;;;;;;;;;3.50;99.90;;;;;;5114291;28;19912;-84
2021/01/03 05:35:26;;;;;;;;;;;3.50;99.90;;;;;;5115563;28;19978;-84
2021/01/03 05:38:04;;;;;;;;;;;3.50;99.90;;;;;;5114397;28;19908;-84
2021/01/03 05:40:42;;;;;;;;;;;3.50;99.90;;;;;;5114674;28;19915;-84
2021/01/03 05:43:10;;;;;;;;;;;3.50;99.90;;;;;;5114622;28;19915;-84
2021/01/03 05:45:56;;;;;;;;;;;3.50;99.90;;;;;;5114373;28;19996;-84
2021/01/03 05:48:27;;;;;;;;;;;3.50;99.90;;;;;;5053618;28;19908;-85
2021/01/03 05:50:56;;;;;;;;;;;3.50;99.90;;;;;;5114280;28;19916;-84
2021/01/03 05:53:24;;;;;;;;;;;3.50;99.90;;;;;;5114348;28;19919;-84
2021/01/03 05:56:08;;;;;;;;;;;3.50;99.90;;;;;;5115355;28;19908;-84
2021/01/03 05:58:50;;;;;;;;;;;3.50;99.90;;;;;;5115406;28;20003;-84
2021/01/03 06:01:29;;;;;;;;;;;3.50;99.90;;;;;;5114481;28;19920;-85
2021/01/03 06:04:02;;;;;;;;;;;3.50;99.90;;;;;;5113870;28;19986;-84
2021/01/03 06:06:46;;;;;;;;;;;3.50;99.90;;;;;;5113430;28;19915;-85
2021/01/03 06:09:36;;;;;;;;;;;3.50;99.90;;;;;;5114464;28;20356;-84
2021/01/03 06:12:21;;;;;;;;;;;3.50;99.90;;;;;;5115130;28;20006;-84
2021/01/03 06:14:58;;;;;;;;;;;3.50;99.90;;;;;;5113623;28;19912;-84
2021/01/03 06:17:33;;;;;;;;;;;3.50;99.90;;;;;;5113323;28;19927;-84
2021/01/03 06:20:16;;;;;;;;;;;3.50;99.90;;;;;;5114489;28;19911;-85
2021/01/03 06:22:54;;;;;;;;;;;3.50;99.90;;;;;;5113752;28;19908;-85
2021/01/03 06:25:43;;;;;;;;;;;3.50;99.90;;;;;;5113319;28;19908;-86
2021/01/03 06:28:23;;;;;;;;;;;3.50;99.90;;;;;;5112535;28;19941;-85
2021/01/03 06:31:04;;;;;;;;;;;3.50;99.90;;;;;;5113731;28;20360;-85
2021/01/03 06:33:36;;;;;;;;;;;3.60;99.90;;;;;;5113530;28;19911;-85
2021/01/03 06:36:24;;;;;;;;;;;3.50;99.90;;;;;;5113012;28;19908;-85
2021/01/03 06:38:58;;;;;;;;;;;3.50;99.90;;;;;;5113947;28;20276;-85
2021/01/03 06:41:31;;;;;;;;;;;3.60;99.90;;;;;;5106904;28;19908;-85
2021/01/03 06:44:08;;;;;;;;;;;3.50;99.90;;;;;;5113470;28;20273;-84
2021/01/03 06:46:37;;;;;;;;;;;3.60;99.90;;;;;;5113431;28;20383;-85
2021/01/03 06:49:14;;;;;;;;;;;3.50;99.90;;;;;;5113796;28;19908;-85
2021/01/03 06:51:49;;;;;;;;;;;3.60;99.90;;;;;;5113581;28;20067;-86
2021/01/03 06:54:33;;;;;;;;;;;3.60;99.90;;;;;;5113153;28;19908;-85
2021/01/03 06:57:20;;;;;;;;;;;3.60;99.90;;;;;;5113297;28;19908;-85
2021/01/03 07:00:06;;;;;;;;;;;3.60;99.90;;;;;;5114040;28;19912;-85
2021/01/03 07:02:43;;;;;;;;;;;3.60;99.90;;;;;;5091119;28;20011;-85
2021/01/03 07:05:16;;;;;;;;;;;3.60;99.90;;;;;;5114153;28;19935;-86
2021/01/03 07:07:55;;;;;;;;;;;3.60;99.90;;;;;;5114500;28;19953;-86
2021/01/03 07:10:33;;;;;;;;;;;3.60;99.90;;;;;;5113233;28;20360;-85
2021/01/03 07:13:05;;;;;;;;;;;3.60;99.90;;;;;;5114582;28;19911;-85
2021/01/03 07:15:38;;;;;;;;;;;3.60;99.90;;;;;;5106739;28;19998;-85
2021/01/03 07:18:25;;;;;;;;;;;3.60;99.90;;;;;;5131557;28;20295;-85
2021/01/03 07:21:07;;;;;;;;;;;3.60;99.90;;;;;;5131882;28;19914;-85
2021/01/03 07:23:35;;;;;;;;;;;3.60;99.90;;;;;;5116085;28;19920;-84
2021/01/03 07:26:19;;;;;;;;;;;3.60;99.90;;;;;;5134600;28;19907;-85
2021/01/03 07:28:48;;;;;;;;;;;3.60;99.90;;;;;;5116998;28;19908;-85
2021/01/03 07:31:33;;;;;;;;;;;3.60;99.90;;;;;;5116772;28;20294;-85
2021/01/03 07:34:17;;;;;;;;;;;3.60;99.90;;;;;;5064978;28;20280;-85
2021/01/03 07:36:43;;;;;;;;;;;3.60;99.90;;;;;;5116503;28;19915;-86
2021/01/03 07:39:19;;;;;;;;;;;3.60;99.90;;;;;;5118407;27;19907;-85
2021/01/03 07:41:46;;;;;;;;;;;3.60;99.90;;;;;;5120370;27;19908;-85
2021/01/03 07:44:49;;;;;;;;;;;3.50;99.90;;;;;;5138474;27;19907;-85
2021/01/03 07:47:36;;;;;;;;;;;3.60;99.90;;;;;;5085832;27;20360;-85
2021/01/03 07:50:13;;;;;;;;;;;3.60;99.90;;;;;;5138564;27;20332;-85
2021/01/03 07:52:42;;;;;;;;;;;3.50;99.90;;;;;;5120374;27;19955;-85
2021/01/03 07:55:26;;;;;;;;;;;3.60;99.90;;;;;;5119753;27;19908;-85
2021/01/03 07:58:03;;;;;;;;;;;3.60;99.90;;;;;;5120161;27;19908;-85
2021/01/03 08:00:33;;;;;;;;;;;3.60;99.90;;;;;;5119742;27;20002;-85
2021/01/03 08:03:20;;;;;;;;;;;3.60;99.90;;;;;;5138069;27;19914;-85
2021/01/03 08:05:46;;;;;;;;;;;3.60;99.90;;;;;;5138608;27;19947;-84
2021/01/03 08:08:28;;;;;;;;;;;3.60;99.90;;;;;;5119620;27;19907;-85
2021/01/03 08:11:08;;;;;;;;;;;3.60;99.90;;;;;;5137862;27;19911;-85
2021/01/03 08:13:41;;;;;;;;;;;3.60;99.90;;;;;;5119365;27;20006;-85
2021/01/03 08:16:09;;;;;;;;;;;3.60;99.90;;;;;;5119694;27;20324;-85
2021/01/03 08:18:43;;;;;;;;;;;3.60;99.90;;;;;;5115704;28;19919;-84
2021/01/03 08:21:20;;;;;;;;;;;3.60;99.90;;;;;;5115813;28;19980;-84
2021/01/03 08:23:46;;;;;;;;;;;3.60;99.90;;;;;;5115947;28;19908;-84
2021/01/03 08:26:35;;;;;;;;;;;3.60;99.90;;;;;;5108184;27;19908;-84
2021/01/03 08:29:21;;;;;;;;;;;3.60;99.90;;;;;;5129434;27;20010;-84
2021/01/03 08:31:54;;;;;;;;;;;3.70;99.90;;;;;;5135934;27;19919;-84
2021/01/03 08:34:29;;;;;;;;;;;3.60;99.90;;;;;;5135155;27;19977;-85
2021/01/03 08:36:58;;;;;;;;;;;3.70;99.90;;;;;;5136111;27;19907;-85
2021/01/03 08:39:30;;;;;;;;;;;3.70;99.90;;;;;;5126283;27;19908;-85
2021/01/03 08:41:56;;;;;;;;;;;3.70;99.90;;;;;;5120848;27;20074;-85
2021/01/03 08:44:24;;;;;;;;;;;3.70;99.90;;;;;;5134225;27;19915;-85
2021/01/03 08:47:05;;;;;;;;;;;3.70;99.90;;;;;;5126295;27;19912;-85
2021/01/03 08:49:34;;;;;;;;;;;3.70;99.90;;;;;;5130062;27;20075;-86
2021/01/03 08:52:12;;;;;;;;;;;3.70;99.90;;;;;;5116044;27;19923;-85
2021/01/03 08:54:45;;;;;;;;;;;3.70;99.90;;;;;;5123382;27;19907;-85
2021/01/03 08:57:31;;;;;;;;;;;3.70;99.90;;;;;;5123695;27;19915;-85
2021/01/03 08:59:59;;;;;;;;;;;3.70;99.90;;;;;;5119391;27;20260;-85
2021/01/03 09:02:32;;;;;;;;;;;3.70;99.90;;;;;;5134677;27;19907;-85
2021/01/03 09:05:02;;;;;;;;;;;3.70;99.90;;;;;;5123554;27;19908;-85
2021/01/03 09:07:33;;;;;;;;;;;3.70;99.90;;;;;;5108540;28;20010;-86
2021/01/03 09:10:06;;;;;;;;;;;3.70;99.90;;;;;;5115293;28;19907;-85
2021/01/03 09:12:47;;;;;;;;;;;3.70;99.90;;;;;;5111951;27;22466;-85
2021/01/03 09:15:34;;;;;;;;;;;3.70;99.90;;;;;;5135200;27;19918;-85
2021/01/03 09:18:24;;;;;;;;;;;3.70;99.90;;;;;;5134885;27;19920;-84
2021/01/03 09:20:55;;;;;;;;;;;3.70;99.90;;;;;;5135405;27;19911;-85
2021/01/03 09:23:31;;;;;;;;;;;3.70;99.90;;;;;;5135341;27;20004;-86
2021/01/03 09:26:04;;;;;;;;;;;3.70;99.90;;;;;;5135294;27;19912;-85
2021/01/03 09:28:45;;;;;;;;;;;3.70;99.90;;;;;;5134918;27;19915;-85
2021/01/03 09:31:25;;;;;;;;;;;3.70;99.90;;;;;;5135121;27;20359;-86
2021/01/03 09:33:55;;;;;;;;;;;3.70;99.90;;;;;;5135209;27;19907;-86
2021/01/03 09:36:47;;;;;;;;;;;3.70;99.90;;;;;;5110595;28;19996;-85
2021/01/03 09:39:24;;;;;;;;;;;3.80;99.90;;;;;;5101850;28;20344;-86
2021/01/03 09:42:11;;;;;;;;;;;3.80;99.90;;;;;;5122722;27;20451;-85
2021/01/03 09:45:00;;;;;;;;;;;3.80;99.90;;;;;;5135189;27;19954;-86
2021/01/03 09:47:39;;;;;;;;;;;3.80;99.90;;;;;;5135191;27;19911;-86
2021/01/03 09:50:40;;;;;;;;;;;3.80;99.90;;;;;;5134977;27;19976;-85
2021/01/03 09:53:09;;;;;;;;;;;3.80;99.90;;;;;;5070734;27;19958;-86
2021/01/03 09:55:58;;;;;;;;;;;3.80;99.90;;;;;;5134715;27;19912;-85
2021/01/03 09:58:35;;;;;;;;;;;3.80;99.90;;;;;;5134526;27;19911;-85
2021/01/03 10:01:23;;;;;;;;;;;3.80;99.90;;;;;;5133367;27;19907;-85
2021/01/03 10:04:09;;;;;;;;;;;3.80;99.90;;;;;;5134292;27;19908;-86
2021/01/03 10:06:45;;;;;;;;;;;3.80;99.90;;;;;;5135240;27;19908;-85
2021/01/03 10:09:28;;;;;;;;;;;3.80;99.90;;;;;;5135692;27;19907;-86
2021/01/03 10:12:01;;;;;;;;;;;3.90;99.90;;;;;;5133997;27;20385;-86
2021/01/03 10:14:40;;;;;;;;;;;3.90;99.90;;;;;;5134289;27;19943;-86
2021/01/03 10:17:17;;;;;;;;;;;3.90;99.90;;;;;;5135815;27;19949;-86
2021/01/03 10:19:46;;;;;;;;;;;3.90;99.90;;;;;;5116858;27;19959;-86
2021/01/03 10:22:44;;;;;;;;;;;3.90;99.90;;;;;;5117820;27;19918;-85
2021/01/03 10:25:21;;;;;;;;;;;3.90;99.90;;;;;;5100154;27;19950;-86
2021/01/03 10:28:07;;;;;;;;;;;3.90;99.90;;;;;;5135848;27;20309;-85
2021/01/03 10:30:37;;;;;;;;;;;3.90;99.90;;;;;;5112458;27;20393;-85
2021/01/03 10:33:16;;;;;;;;;;;4.00;99.90;;;;;;5113881;27;19916;-87
2021/01/03 10:35:48;;;;;;;;;;;4.00;99.90;;;;;;5117148;27;19912;-86
2021/01/03 10:38:17;;;;;;;;;;;4.00;99.90;;;;;;5117044;27;19908;-86
2021/01/03 10:40:48;;;;;;;;;;;4.10;99.90;;;;;;5132491;27;19911;-86
2021/01/03 10:43:28;;;;;;;;;;;4.00;99.90;;;;;;5116960;27;20409;-86
2021/01/03 10:45:57;;;;;;;;;;;4.10;99.90;;;;;;5122457;27;19912;-86
2021/01/03 10:48:25;;;;;;;;;;;4.10;99.90;;;;;;5095914;28;19911;-86
2021/01/03 10:50:51;;;;;;;;;;;4.10;99.90;;;;;;5099256;27;19911;-86
2021/01/03 10:53:26;;;;;;;;;;;4.20;99.90;;;;;;5114051;28;19957;-85
2021/01/03 10:55:58;;;;;;;;;;;4.20;99.90;;;;;;5095892;28;19999;-86
2021/01/03 10:58:28;;;;;;;;;;;4.20;99.90;;;;;;5127739;27;19940;-85
2021/01/03 11:01:00;;;;;;;;;;;4.20;99.90;;;;;;5115797;28;19908;-86
2021/01/03 11:03:31;;;;;;;;;;;4.20;99.90;;;;;;5116042;28;19918;-86
2021/01/03 11:05:59;;;;;;;;;;;4.20;99.90;;;;;;5112257;28;20006;-86
2021/01/03 11:08:33;;;;;;;;;;;4.20;99.90;;;;;;5116348;28;19932;-86
2021/01/03 11:11:06;;;;;;;;;;;4.20;99.90;;;;;;5116383;28;19911;-86
2021/01/03 11:13:36;;;;;;;;;;;4.20;99.90;;;;;;5114671;27;19911;-87
2021/01/03 11:16:07;;;;;;;;;;;4.20;99.90;;;;;;5116556;27;19907;-86
2021/01/03 11:18:34;;;;;;;;;;;4.20;99.90;;;;;;5149713;27;19919;-87
2021/01/03 11:21:10;;;;;;;;;;;4.10;99.90;;;;;;5141219;27;19918;-87
2021/01/03 11:23:38;;;;;;;;;;;4.20;99.90;;;;;;5140442;27;19925;-86
2021/01/03 11:26:06;;;;;;;;;;;4.20;99.90;;;;;;5137444;27;19912;-86
2021/01/03 11:28:34;;;;;;;;;;;4.20;99.90;;;;;;5120637;27;19908;-87
2021/01/03 11:31:00;;;;;;;;;;;4.20;99.90;;;;;;5117362;27;19916;-86
2021/01/03 11:33:29;;;;;;;;;;;4.20;99.90;;;;;;5035267;28;19920;-85
2021/01/03 11:35:57;;;;;;;;;;;4.20;99.90;;;;;;5019019;28;19909;-85
2021/01/03 11:38:27;;;;;;;;;;;4.20;99.90;;;;;;5035323;28;20332;-86
2021/01/03 11:40:58;;;;;;;;;;;4.20;99.90;;;;;;5054187;28;19913;-85
2021/01/03 11:43:33;;;;;;;;;;;4.20;99.90;;;;;;5055100;28;19964;-85
2021/01/03 11:46:02;;;;;;;;;;;4.20;99.90;;;;;;5055562;28;19979;-86
2021/01/03 11:48:30;;;;;;;;;;;4.20;99.90;;;;;;5055338;28;20304;-86
2021/01/03 11:51:02;;;;;;;;;;;4.20;99.90;;;;;;5054699;28;19912;-87
2021/01/03 11:53:36;;;;;;;;;;;4.20;99.90;;;;;;5055008;28;19909;-86
2021/01/03 11:56:04;;;;;;;;;;;4.20;99.90;;;;;;5055263;28;19909;-86
2021/01/03 11:58:33;;;;;;;;;;;4.20;99.90;;;;;;5055358;28;19963;-87
2021/01/03 12:01:03;;;;;;;;;;;4.20;99.90;;;;;;5055110;28;19915;-85
2021/01/03 12:03:32;;;;;;;;;;;4.10;99.90;;;;;;5064169;27;19919;-86
2021/01/03 12:06:00;;;;;;;;;;;4.20;99.90;;;;;;5119876;27;19911;-86
2021/01/03 12:08:26;;;;;;;;;;;4.20;99.90;;;;;;5138414;27;19915;-86
2021/01/03 12:10:55;;;;;;;;;;;4.20;99.90;;;;;;5114992;27;19918;-87
2021/01/03 12:13:25;;;;;;;;;;;4.20;99.90;;;;;;5113119;27;19919;-86
2021/01/03 12:15:57;;;;;;;;;;;4.30;99.90;;;;;;5119728;27;19921;-85
2021/01/03 12:18:25;;;;;;;;;;;4.30;99.90;;;;;;5113600;27;20006;-86
2021/01/03 12:20:54;;;;;;;;;;;4.30;99.90;;;;;;5119420;27;19919;-86
2021/01/03 12:23:19;;;;;;;;;;;4.30;99.90;;;;;;5119620;27;19911;-86
2021/01/03 12:25:45;;;;;;;;;;;4.30;99.90;;;;;;5122522;27;19914;-86
2021/01/03 12:28:21;;;;;;;;;;;4.40;99.90;;;;;;5135043;27;19953;-86
2021/01/03 12:30:56;;;;;;;;;;;4.40;99.90;;;;;;5139595;27;19915;-85
2021/01/03 12:33:24;;;;;;;;;;;4.40;99.90;;;;;;5140018;27;19952;-86
2021/01/03 12:35:50;;;;;;;;;;;4.50;99.90;;;;;;5126073;27;19915;-85
2021/01/03 12:38:22;;;;;;;;;;;4.50;99.90;;;;;;5119484;27;19942;-86
2021/01/03 12:41:07;;;;;;;;;;;4.40;99.90;;;;;;5144139;27;19914;-86
2021/01/03 12:43:36;;;;;;;;;;;4.40;99.90;;;;;;5119646;27;20253;-85
2021/01/03 12:46:05;;;;;;;;;;;4.40;99.90;;;;;;5137676;27;19961;-85
2021/01/03 12:48:35;;;;;;;;;;;4.40;99.90;;;;;;5114446;27;20403;-85
2021/01/03 12:51:19;;;;;;;;;;;4.40;99.90;;;;;;5135347;27;19942;-86
2021/01/03 12:53:45;;;;;;;;;;;4.40;99.90;;;;;;5118250;27;20356;-86
2021/01/03 12:56:29;;;;;;;;;;;4.60;99.90;;;;;;5118728;27;19922;-86
2021/01/03 12:58:59;;;;;;;;;;;4.80;99.90;;;;;;5118688;27;19914;-86
2021/01/03 13:01:31;;;;;;;;;;;5.00;99.90;;;;;;5118764;27;19914;-86
2021/01/03 13:03:57;;;;;;;;;;;5.30;99.90;;;;;;5118246;27;19964;-86
2021/01/03 13:06:26;;;;;;;;;;;5.70;99.90;;;;;;5118403;27;20380;-85
2021/01/03 13:08:56;;;;;;;;;;;5.70;99.90;;;;;;5118461;27;19960;-86
2021/01/03 13:11:24;;;;;;;;;;;5.50;99.90;;;;;;5115525;27;19920;-86
2021/01/03 13:13:50;;;;;;;;;;;5.30;99.90;;;;;;5118486;27;19907;-86
2021/01/03 13:16:18;;;;;;;;;;;5.20;99.90;;;;;;5113749;27;20002;-87
2021/01/03 13:18:55;;;;;;;;;;;5.00;99.90;;;;;;5117625;27;19907;-86
2021/01/03 13:21:39;;;;;;;;;;;4.90;99.90;;;;;;5136607;27;19907;-85
2021/01/03 13:24:08;;;;;;;;;;;4.90;99.90;;;;;;5117856;27;20013;-87
2021/01/03 13:26:44;;;;;;;;;;;4.80;99.90;;;;;;5145428;27;20240;-85
2021/01/03 13:29:12;;;;;;;;;;;4.70;99.90;;;;;;5153445;27;19914;-86
2021/01/03 13:31:56;;;;;;;;;;;4.70;99.90;;;;;;5151761;27;19919;-85
2021/01/03 13:34:25;;;;;;;;;;;4.70;99.90;;;;;;5126229;27;19964;-86
2021/01/03 13:36:54;;;;;;;;;;;4.70;99.90;;;;;;5138202;27;19913;-85
2021/01/03 13:39:27;;;;;;;;;;;4.60;99.90;;;;;;5136182;27;19934;-86
2021/01/03 13:41:53;;;;;;;;;;;4.60;99.90;;;;;;5138346;27;20002;-85
2021/01/03 13:44:20;;;;;;;;;;;4.60;99.90;;;;;;5127281;27;19907;-85
2021/01/03 13:46:54;;;;;;;;;;;4.60;99.90;;;;;;5118052;27;19907;-85
2021/01/03 13:49:29;;;;;;;;;;;4.60;99.90;;;;;;5135894;27;19930;-84
2021/01/03 13:52:01;;;;;;;;;;;4.60;99.90;;;;;;5131172;27;19967;-85
2021/01/03 13:54:29;;;;;;;;;;;4.60;99.90;;;;;;5117687;27;19908;-87
2021/01/03 13:56:58;;;;;;;;;;;4.60;99.90;;;;;;5092731;28;19912;-86
2021/01/03 13:59:29;;;;;;;;;;;4.60;99.90;;;;;;5073360;28;19947;-85
2021/01/03 14:01:57;;;;;;;;;;;4.50;99.90;;;;;;5075928;28;19908;-86
2021/01/03 14:04:25;;;;;;;;;;;4.50;99.90;;;;;;5073464;28;19912;-85
2021/01/03 14:06:54;;;;;;;;;;;4.50;99.90;;;;;;5073187;28;20656;-86
2021/01/03 14:09:27;;;;;;;;;;;4.50;99.90;;;;;;5076371;28;19911;-85
2021/01/03 14:11:59;;;;;;;;;;;4.50;99.90;;;;;;5074280;28;19916;-85
2021/01/03 14:14:24;;;;;;;;;;;4.50;99.90;;;;;;5073158;28;20382;-85
2021/01/03 14:17:00;;;;;;;;;;;4.50;99.90;;;;;;5072820;28;19908;-85
2021/01/03 14:19:28;;;;;;;;;;;4.40;99.90;;;;;;5074876;28;19924;-85
2021/01/03 14:21:54;;;;;;;;;;;4.50;99.90;;;;;;5075813;28;20371;-84
2021/01/03 14:24:27;;;;;;;;;;;4.40;99.90;;;;;;5075806;28;19912;-85
2021/01/03 14:26:53;;;;;;;;;;;4.50;99.90;;;;;;5075280;28;19934;-85
2021/01/03 14:29:22;;;;;;;;;;;4.50;99.90;;;;;;5075362;28;19908;-84
2021/01/03 14:31:52;;;;;;;;;;;4.40;99.90;;;;;;5075170;28;19912;-85
2021/01/03 14:34:29;;;;;;;;;;;4.40;99.90;;;;;;5075456;28;19966;-84
2021/01/03 14:37:00;;;;;;;;;;;4.40;99.90;;;;;;5075317;28;19908;-86
2021/01/03 14:39:29;;;;;;;;;;;4.40;99.90;;;;;;5072596;28;20369;-84
2021/01/03 14:42:00;;;;;;;;;;;4.30;99.90;;;;;;5092253;28;19930;-85
2021/01/03 14:44:32;;;;;;;;;;;4.40;99.90;;;;;;5072684;28;19919;-84
2021/01/03 14:47:24;;;;;;;;;;;4.30;99.90;;;;;;5091571;27;19907;-85
2021/01/03 14:49:52;;;;;;;;;;;4.30;99.90;;;;;;5077177;27;19953;-84
2021/01/03 14:52:29;;;;;;;;;;;4.30;99.90;;;;;;5116751;28;20006;-85
2021/01/03 14:55:06;;;;;;;;;;;4.30;99.90;;;;;;5117072;27;19914;-84
2021/01/03 14:57:36;;;;;;;;;;;4.30;99.90;;;;;;5134991;28;19914;-84
2021/01/03 15:00:12;;;;;;;;;;;4.30;99.90;;;;;;5146608;27;19908;-84
2021/01/03 15:02:43;;;;;;;;;;;4.30;99.90;;;;;;5144679;27;19918;-84
2021/01/03 15:05:21;;;;;;;;;;;4.20;99.90;;;;;;5136643;27;19907;-84
2021/01/03 15:07:57;;;;;;;;;;;4.20;99.90;;;;;;5124242;27;19911;-85
2021/01/03 15:10:23;;;;;;;;;;;4.20;99.90;;;;;;5137072;27;19999;-86